Time;durP1;ratioP1;P1;durP2;ratioP2;P2;SDS_P1;SDS_P2;PMS_P1;PMS_P2;Temp;Humidity;BMP_temperature;BMP_pressure;BME280_temperature;BME280_humidity;BME280_pressure;Samples;Min_cycle;Max_cycle;Signal;HPM_P1;HPM_P2
2022/03/10 00:00:34;;;;;;;23.12;10.68;;;;;;;-2.65;74.45;101733.00;1678631;85;25456;-71
2022/03/10 00:03:04;;;;;;;22.90;12.10;;;;;;;-2.66;74.45;101741.95;1678678;84;26219;-73
2022/03/10 00:05:31;;;;;;;25.10;11.78;;;;;;;-2.68;74.53;101744.78;1678328;85;25412;-71
2022/03/10 00:07:57;;;;;;;24.25;12.07;;;;;;;-2.70;74.63;101745.98;1667454;85;27360;-71
2022/03/10 00:10:24;;;;;;;21.40;11.28;;;;;;;-2.74;74.78;101752.16;1673963;85;25734;-72
2022/03/10 00:12:53;;;;;;;22.45;11.25;;;;;;;-2.76;74.59;101750.17;1673711;85;25507;-72
2022/03/10 00:15:23;;;;;;;25.48;11.78;;;;;;;-2.77;74.59;101752.52;1673997;85;26647;-73
2022/03/10 00:17:50;;;;;;;21.33;10.75;;;;;;;-2.80;74.74;101760.02;1673988;84;25660;-72
2022/03/10 00:20:17;;;;;;;19.77;10.85;;;;;;;-2.83;74.87;101762.52;1673828;85;27319;-72
2022/03/10 00:22:52;;;;;;;23.02;11.35;;;;;;;-2.86;74.70;101758.42;1663973;85;25634;-72
2022/03/10 00:25:20;;;;;;;20.55;11.25;;;;;;;-2.88;74.80;101764.41;1674021;85;25644;-71
2022/03/10 00:27:47;;;;;;;22.93;11.83;;;;;;;-2.88;74.80;101763.57;1673760;85;26317;-72
2022/03/10 00:30:15;;;;;;;24.40;11.83;;;;;;;-2.90;74.79;101763.75;1674006;85;25715;-72
2022/03/10 00:32:53;;;;;;;23.32;11.65;;;;;;;-2.92;74.77;101767.09;1657683;84;27396;-72
2022/03/10 00:35:25;;;;;;;23.52;11.55;;;;;;;-2.94;74.80;101761.67;1631224;87;25779;-72
2022/03/10 00:37:53;;;;;;;24.30;11.68;;;;;;;-2.96;74.82;101771.60;1619845;88;25843;-72
2022/03/10 00:40:20;;;;;;;22.35;11.40;;;;;;;-2.98;74.76;101777.08;1619870;88;26474;-72
2022/03/10 00:42:47;;;;;;;23.02;10.38;;;;;;;-3.01;74.98;101776.95;1624717;87;25466;-73
2022/03/10 00:45:16;;;;;;;23.30;11.68;;;;;;;-3.02;75.06;101781.10;1625146;88;27387;-73
2022/03/10 00:47:43;;;;;;;23.27;10.95;;;;;;;-3.05;74.98;101781.46;1624977;88;26215;-72
2022/03/10 00:50:10;;;;;;;22.30;11.45;;;;;;;-3.08;75.18;101784.47;1624963;88;25769;-73
2022/03/10 00:52:48;;;;;;;22.87;10.82;;;;;;;-3.09;74.96;101788.14;1625019;86;26017;-72
2022/03/10 00:55:17;;;;;;;22.17;10.93;;;;;;;-3.11;75.09;101787.50;1625122;88;25566;-73
2022/03/10 00:57:45;;;;;;;25.17;11.73;;;;;;;-3.14;75.27;101790.50;1625074;88;27377;-73
2022/03/10 01:00:13;;;;;;;23.38;11.93;;;;;;;-3.17;75.16;101791.67;1625058;86;25508;-73
2022/03/10 01:02:40;;;;;;;22.27;10.65;;;;;;;-3.20;75.11;101796.84;1624658;88;25716;-71
2022/03/10 01:05:09;;;;;;;22.77;11.15;;;;;;;-3.22;75.22;101798.02;1624926;88;26592;-74
2022/03/10 01:07:36;;;;;;;20.95;11.10;;;;;;;-3.25;75.39;101799.20;1625111;87;26224;-74
2022/03/10 01:10:06;;;;;;;24.12;11.25;;;;;;;-3.25;75.45;101807.15;1625389;87;28002;-72
2022/03/10 01:12:34;;;;;;;20.88;10.75;;;;;;;-3.28;75.55;101807.50;1607337;87;25606;-72
2022/03/10 01:15:01;;;;;;;21.55;11.53;;;;;;;-3.29;75.45;101809.81;1625457;88;25679;-73
2022/03/10 01:17:28;;;;;;;22.65;10.70;;;;;;;-3.30;75.63;101812.64;1625381;88;26529;-74
2022/03/10 01:19:54;;;;;;;21.65;10.98;;;;;;;-3.31;75.42;101817.63;1625321;88;25731;-72
2022/03/10 01:22:20;;;;;;;22.80;10.68;;;;;;;-3.34;75.43;101820.12;1625466;88;27353;-73
2022/03/10 01:24:47;;;;;;;20.25;10.95;;;;;;;-3.37;75.48;101816.53;1625355;88;25719;-73
2022/03/10 01:27:13;;;;;;;22.50;10.88;;;;;;;-3.38;75.43;101820.98;1625414;88;25463;-73
2022/03/10 01:29:40;;;;;;;23.40;11.70;;;;;;;-3.43;75.48;101819.38;1625297;87;25930;-72
2022/03/10 01:32:08;;;;;;;21.10;11.45;;;;;;;-3.42;75.40;101814.41;1625384;88;25447;-72
2022/03/10 01:34:35;;;;;;;23.40;11.70;;;;;;;-3.44;75.38;101820.87;1625443;88;27389;-72
2022/03/10 01:37:02;;;;;;;25.00;11.38;;;;;;;-3.46;75.25;101829.48;1625295;88;25703;-72
2022/03/10 01:39:32;;;;;;;22.27;10.90;;;;;;;-3.51;75.22;101831.34;1608934;88;25462;-72
2022/03/10 01:41:57;;;;;;;21.93;10.80;;;;;;;-3.54;75.21;101837.48;1625283;86;26385;-73
2022/03/10 01:44:24;;;;;;;20.55;11.55;;;;;;;-3.58;75.43;101840.48;1625634;86;25678;-72
2022/03/10 01:46:51;;;;;;;22.30;11.05;;;;;;;-3.59;75.55;101844.66;1625451;87;27355;-72
2022/03/10 01:49:17;;;;;;;23.87;10.50;;;;;;;-3.62;75.44;101843.67;1625527;88;25672;-72
2022/03/10 01:51:44;;;;;;;18.42;10.80;;;;;;;-3.65;75.26;101842.70;1625624;87;25580;-73
2022/03/10 01:54:11;;;;;;;24.07;11.33;;;;;;;-3.67;75.41;101850.81;1625533;87;26024;-72
2022/03/10 01:56:39;;;;;;;22.58;11.10;;;;;;;-3.69;75.51;101849.36;1625633;88;25484;-72
2022/03/10 01:59:06;;;;;;;21.25;11.03;;;;;;;-3.71;75.56;101854.81;1625422;86;27330;-72
2022/03/10 02:01:32;;;;;;;21.73;11.08;;;;;;;-3.72;75.67;101858.45;1625448;88;25793;-72
2022/03/10 02:03:59;;;;;;;19.92;10.60;;;;;;;-3.73;75.68;101873.98;1625491;88;26223;-72
2022/03/10 02:06:26;;;;;;;21.45;11.35;;;;;;;-3.76;75.72;101873.84;1625337;88;26059;-72
2022/03/10 02:11:39;;;;;;;19.85;10.65;;;;;;;-3.80;75.65;101882.30;1641594;87;27339;-71
2022/03/10 02:19:35;;;;;;;22.90;10.65;;;;;;;-3.92;75.49;101895.09;1587557;90;25928;-72
2022/03/10 02:22:08;;;;;;;22.15;11.35;;;;;;;-3.96;75.52;101885.86;1607276;89;25694;-72
2022/03/10 02:24:38;;;;;;;24.98;11.70;;;;;;;-4.01;75.58;101892.98;1587151;90;27516;-72
2022/03/10 02:27:26;;;;;;;20.40;10.72;;;;;;;-4.02;75.75;101891.36;1587548;90;25685;-72
2022/03/10 02:30:01;;;;;;;23.80;11.45;;;;;;;-4.05;75.68;101897.46;1607674;89;25677;-72
2022/03/10 02:32:28;;;;;;;23.12;10.80;;;;;;;-4.10;75.71;101898.00;1587631;90;25939;-71
2022/03/10 02:34:55;;;;;;;24.40;11.90;;;;;;;-4.12;75.77;101897.32;1587723;90;25708;-72
2022/03/10 02:37:24;;;;;;;21.17;10.75;;;;;;;-4.14;75.89;101906.77;1607737;89;27966;-72
2022/03/10 02:39:51;;;;;;;22.80;10.50;;;;;;;-4.16;75.81;101914.02;1587512;90;25514;-73
2022/03/10 02:42:17;;;;;;;20.27;9.63;;;;;;;-4.17;75.79;101912.39;1613250;88;25837;-73
2022/03/10 02:44:47;;;;;;;22.70;10.72;;;;;;;-4.20;75.81;101918.52;1593314;90;26659;-73
2022/03/10 02:47:14;;;;;;;23.07;10.98;;;;;;;-4.21;75.77;101920.83;1620124;86;25748;-73
2022/03/10 02:49:42;;;;;;;24.43;10.85;;;;;;;-4.23;75.83;101922.82;1625343;87;27366;-74
2022/03/10 02:52:10;;;;;;;22.93;10.32;;;;;;;-4.24;75.80;101934.38;1625185;88;25666;-73
2022/03/10 02:54:36;;;;;;;21.65;10.38;;;;;;;-4.28;75.76;101932.58;1625455;88;25422;-73
2022/03/10 02:57:03;;;;;;;19.85;9.68;;;;;;;-4.30;75.76;101938.53;1625361;86;26001;-74
2022/03/10 02:59:29;;;;;;;20.45;9.85;;;;;;;-4.33;75.68;101946.79;1608795;88;25676;-73
2022/03/10 03:01:56;;;;;;;20.85;9.35;;;;;;;-4.36;75.70;101946.65;1625521;88;27387;-73
2022/03/10 03:04:23;;;;;;;20.75;10.55;;;;;;;-4.38;75.72;101947.80;1625286;88;25659;-74
2022/03/10 03:06:49;;;;;;;20.35;10.20;;;;;;;-4.43;75.76;101948.30;1625380;88;25695;-74
2022/03/10 03:09:16;;;;;;;20.95;10.08;;;;;;;-4.46;75.64;101955.26;1625216;87;25940;-74
2022/03/10 03:11:43;;;;;;;19.40;9.78;;;;;;;-4.47;75.84;101960.70;1625405;87;25777;-74
2022/03/10 03:14:09;;;;;;;21.68;10.15;;;;;;;-4.48;75.68;101966.47;1625268;88;27310;-74
2022/03/10 03:16:36;;;;;;;20.10;9.55;;;;;;;-4.50;75.71;101969.78;1607435;88;25445;-74
2022/03/10 03:19:02;;;;;;;20.48;9.48;;;;;;;-4.53;75.72;101970.95;1625236;86;25532;-74
2022/03/10 03:21:28;;;;;;;19.52;10.78;;;;;;;-4.56;75.60;101973.11;1625351;88;26057;-73
2022/03/10 03:23:56;;;;;;;20.40;9.38;;;;;;;-4.58;75.72;101975.06;1625365;86;25739;-74
2022/03/10 03:26:22;;;;;;;20.50;10.40;;;;;;;-4.61;75.72;101974.92;1625377;88;27342;-74
2022/03/10 03:28:48;;;;;;;22.35;9.78;;;;;;;-4.61;75.85;101982.84;1625325;88;25726;-74
2022/03/10 03:31:16;;;;;;;19.30;9.68;;;;;;;-4.63;75.80;101988.80;1625415;87;25432;-74
2022/03/10 03:33:43;;;;;;;16.48;8.83;;;;;;;-4.66;75.71;101984.34;1625278;88;25947;-73
2022/03/10 03:36:09;;;;;;;17.87;10.35;;;;;;;-4.69;75.62;101985.48;1625336;86;25749;-73
2022/03/10 03:38:36;;;;;;;21.90;9.70;;;;;;;-4.71;75.66;101992.25;1625351;88;27920;-73
2022/03/10 03:41:02;;;;;;;21.20;9.95;;;;;;;-4.73;75.62;101992.10;1625174;87;25679;-73
2022/03/10 03:43:28;;;;;;;17.45;9.43;;;;;;;-4.75;75.58;101994.06;1625296;88;25621;-73
2022/03/10 03:45:56;;;;;;;19.15;9.45;;;;;;;-4.78;75.47;101995.73;1625230;86;26101;-71
2022/03/10 03:48:24;;;;;;;18.48;9.30;;;;;;;-4.79;75.50;101996.71;1625333;87;25421;-72
2022/03/10 03:50:51;;;;;;;16.25;8.65;;;;;;;-4.82;75.47;101997.85;1625367;88;27582;-72
2022/03/10 03:53:18;;;;;;;19.73;9.13;;;;;;;-4.84;75.44;101998.52;1625106;88;25636;-74
2022/03/10 03:55:45;;;;;;;19.55;9.05;;;;;;;-4.85;75.46;102010.09;1625364;88;25633;-74
2022/03/10 03:58:11;;;;;;;17.67;9.18;;;;;;;-4.89;75.44;102007.42;1625276;88;26093;-72
2022/03/10 04:00:38;;;;;;;17.55;9.05;;;;;;;-4.89;75.45;102015.34;1625220;87;25725;-72
2022/03/10 04:03:09;;;;;;;21.27;9.33;;;;;;;-4.91;75.40;102018.14;1625302;87;27860;-72
2022/03/10 04:05:37;;;;;;;19.30;8.98;;;;;;;-4.91;75.38;102021.29;1625055;88;25757;-72
2022/03/10 04:08:05;;;;;;;18.60;9.15;;;;;;;-4.94;75.32;102015.02;1625281;88;25409;-73
2022/03/10 04:10:31;;;;;;;20.72;8.93;;;;;;;-4.96;75.32;102025.73;1616718;87;26011;-73
2022/03/10 04:12:59;;;;;;;21.37;8.98;;;;;;;-4.98;75.18;102029.03;1670618;85;25471;-72
2022/03/10 04:15:25;;;;;;;19.95;9.18;;;;;;;-5.01;75.14;102031.18;1670807;85;27342;-72
2022/03/10 04:17:52;;;;;;;16.00;8.40;;;;;;;-5.04;75.02;102016.98;1650801;85;25756;-72
2022/03/10 04:20:18;;;;;;;18.40;8.65;;;;;;;-5.06;75.01;102034.30;1670861;85;25714;-72
2022/03/10 04:22:45;;;;;;;18.60;8.45;;;;;;;-5.09;75.04;102029.34;1670601;85;25658;-73
2022/03/10 04:25:11;;;;;;;18.30;9.05;;;;;;;-5.11;75.04;102037.92;1670077;85;25583;-73
2022/03/10 04:27:38;;;;;;;15.90;8.13;;;;;;;-5.13;75.05;102041.22;1670252;85;27330;-73
2022/03/10 04:30:06;;;;;;;17.07;8.38;;;;;;;-5.17;74.97;102039.40;1670434;85;25651;-73
2022/03/10 04:32:42;;;;;;;19.27;8.18;;;;;;;-5.19;75.00;102045.34;1670404;85;25465;-73
2022/03/10 04:35:10;;;;;;;18.50;7.85;;;;;;;-5.21;75.05;102044.68;1670332;85;25932;-72
2022/03/10 04:37:37;;;;;;;16.42;8.58;;;;;;;-5.23;74.96;102055.05;1676331;85;25646;-73
2022/03/10 04:40:06;;;;;;;15.48;8.10;;;;;;;-5.28;74.86;102054.20;1670526;85;27324;-73
2022/03/10 04:42:36;;;;;;;17.42;8.88;;;;;;;-5.30;74.90;102055.68;1651630;85;26191;-72
2022/03/10 04:45:03;;;;;;;;;;;;;;;-5.32;74.97;102056.34;1654661;84;25807;-72
2022/03/10 04:47:30;;;;;;;16.32;7.67;;;;;;;-5.32;74.97;102060.30;1670189;85;25934;-72
2022/03/10 04:49:57;;;;;;;15.10;7.65;;;;;;;-5.34;75.01;102065.41;1670578;85;25636;-72
2022/03/10 04:52:28;;;;;;;19.73;8.00;;;;;;;-5.36;74.98;102070.00;1669920;85;27271;-72
2022/03/10 04:54:55;;;;;;;16.45;8.48;;;;;;;-5.40;74.88;102072.13;1670405;85;25709;-72
2022/03/10 04:57:22;;;;;;;18.35;8.13;;;;;;;-5.40;74.91;102074.77;1653372;85;25675;-72
2022/03/10 04:59:49;;;;;;;19.90;8.45;;;;;;;-5.41;74.84;102071.81;1670581;85;25938;-73
2022/03/10 05:02:16;;;;;;;15.43;7.53;;;;;;;-5.44;74.72;102078.22;1675964;85;25667;-73
2022/03/10 05:04:43;;;;;;;15.10;7.60;;;;;;;-5.46;74.69;102080.70;1652994;85;27330;-73
2022/03/10 05:07:09;;;;;;;18.98;8.23;;;;;;;-5.47;74.74;102086.45;1651683;85;25612;-73
2022/03/10 05:09:36;;;;;;;16.90;8.08;;;;;;;-5.47;74.78;102089.59;1661436;85;25780;-73
2022/03/10 05:12:05;;;;;;;28.10;12.10;;;;;;;-5.49;74.73;102088.42;1652858;85;26025;-72
2022/03/10 05:14:31;;;;;;;19.07;9.90;;;;;;;-5.50;74.83;102098.66;1670703;85;25423;-72
2022/03/10 05:16:58;;;;;;;18.07;8.58;;;;;;;-5.51;74.87;102102.27;1671094;85;27316;-72
2022/03/10 05:19:24;;;;;;;16.12;7.25;;;;;;;-5.50;74.93;102113.63;1671371;85;25629;-72
2022/03/10 05:21:51;;;;;;;15.75;7.10;;;;;;;-5.55;74.84;102109.33;1653959;85;25656;-72
2022/03/10 05:24:17;;;;;;;14.47;8.10;;;;;;;-5.51;74.78;102119.91;1671364;85;25983;-72
2022/03/10 05:26:44;;;;;;;14.50;8.00;;;;;;;-5.51;74.79;102115.95;1670249;85;25664;-72
2022/03/10 05:29:11;;;;;;;17.62;8.15;;;;;;;-5.51;74.79;102119.91;1670412;85;27906;-72
2022/03/10 05:31:39;;;;;;;13.68;7.35;;;;;;;-5.50;74.78;102132.09;1669951;85;25746;-72
2022/03/10 05:34:07;;;;;;;15.57;7.73;;;;;;;-5.50;74.74;102136.05;1670734;85;25676;-73
2022/03/10 05:36:36;;;;;;;16.10;8.20;;;;;;;-5.50;74.72;102147.45;1651186;85;26103;-73
2022/03/10 05:39:04;;;;;;;19.40;8.23;;;;;;;-5.47;74.82;102150.25;1670666;85;25632;-73
2022/03/10 05:41:32;;;;;;;12.10;6.42;;;;;;;-5.45;74.86;102157.50;1670094;85;28075;-73
2022/03/10 05:44:00;;;;;;;13.38;7.40;;;;;;;-5.43;74.95;102164.80;1670531;85;25713;-73
2022/03/10 05:46:26;;;;;;;16.93;8.00;;;;;;;-5.38;75.07;102161.19;1670441;85;25647;-73
2022/03/10 05:48:53;;;;;;;15.05;7.03;;;;;;;-5.34;75.18;102156.42;1670479;85;25935;-72
2022/03/10 05:51:20;;;;;;;16.27;7.92;;;;;;;-5.26;75.34;102168.34;1669670;85;25655;-72
2022/03/10 05:53:49;;;;;;;15.63;7.70;;;;;;;-5.18;75.48;102169.66;1670375;85;27333;-72
2022/03/10 05:56:16;;;;;;;;;;;;;;;-5.09;75.74;102176.65;1672328;85;25660;-72
2022/03/10 05:58:43;;;;;;;13.48;6.53;;;;;;;-4.97;75.87;102179.83;1669516;85;25609;-72
2022/03/10 06:01:11;;;;;;;14.80;7.05;;;;;;;-4.85;75.96;102180.84;1670325;85;26185;-72
2022/03/10 06:03:37;;;;;;;13.88;7.87;;;;;;;-4.73;76.00;102190.14;1667708;85;25572;-73
2022/03/10 06:06:04;;;;;;;17.23;7.78;;;;;;;-4.58;76.33;102194.28;1670459;85;27955;-73
2022/03/10 06:08:30;;;;;;;16.30;7.72;;;;;;;-4.47;76.10;102192.66;1670421;85;25635;-73
2022/03/10 06:10:56;;;;;;;17.20;8.38;;;;;;;-4.35;75.69;102201.92;1670329;85;25687;-73
2022/03/10 06:13:23;;;;;;;15.35;7.87;;;;;;;-4.24;75.42;102200.80;1669291;85;25920;-72
2022/03/10 06:15:49;;;;;;;14.85;7.83;;;;;;;-4.13;75.22;102201.78;1670463;85;25582;-72
2022/03/10 06:18:16;;;;;;;16.95;7.90;;;;;;;-3.97;75.71;102202.30;1670433;85;27344;-72
2022/03/10 06:20:42;;;;;;;16.05;7.28;;;;;;;-3.78;75.73;102213.50;1670410;85;26146;-72
2022/03/10 06:23:09;;;;;;;13.88;7.25;;;;;;;-3.60;74.75;102215.98;1670802;85;25560;-72
2022/03/10 06:25:36;;;;;;;15.08;8.03;;;;;;;-3.45;74.82;102216.13;1653306;85;26567;-71
2022/03/10 06:28:04;;;;;;;11.75;7.85;;;;;;;-3.22;75.05;102221.51;1670681;85;25623;-72
2022/03/10 06:30:30;;;;;;;12.03;6.90;;;;;;;-2.99;74.87;102227.41;1652880;85;27346;-72
2022/03/10 06:32:59;;;;;;;16.55;7.65;;;;;;;-2.74;74.85;102234.26;1678085;85;25693;-72
2022/03/10 06:35:25;;;;;;;13.10;6.72;;;;;;;-2.45;74.62;102234.11;1686696;84;25667;-72
2022/03/10 06:37:52;;;;;;;17.12;7.72;;;;;;;-2.21;74.00;102238.91;1686700;84;25918;-72
2022/03/10 06:40:20;;;;;;;14.95;7.78;;;;;;;-1.93;73.42;102244.52;1685971;84;25661;-72
2022/03/10 06:42:46;;;;;;;15.32;7.35;;;;;;;-1.68;72.50;102246.48;1667014;85;27281;-73
2022/03/10 06:45:13;;;;;;;14.73;7.15;;;;;;;-1.41;71.78;102241.08;1686629;84;25490;-72
2022/03/10 06:47:40;;;;;;;14.47;7.78;;;;;;;-1.19;70.78;102245.16;1686768;84;25620;-72
2022/03/10 06:50:08;;;;;;;13.25;6.22;;;;;;;-0.94;69.88;102248.36;1686917;84;25928;-71
2022/03/10 06:52:35;;;;;;;13.78;6.78;;;;;;;-0.67;69.39;102252.19;1686623;84;25699;-72
2022/03/10 06:55:02;;;;;;;13.75;6.58;;;;;;;-0.39;69.13;102250.99;1686590;84;27326;-72
2022/03/10 06:57:28;;;;;;;15.32;7.42;;;;;;;-0.10;68.94;102247.92;1686553;84;25391;-73
2022/03/10 06:59:55;;;;;;;13.35;6.40;;;;;;;0.25;68.67;102260.51;1686850;84;25729;-72
2022/03/10 07:02:21;;;;;;;11.80;6.20;;;;;;;0.51;66.92;102253.23;1686456;85;26179;-73
2022/03/10 07:04:47;;;;;;;11.18;6.22;;;;;;;0.71;65.80;102257.37;1686613;84;25974;-74
2022/03/10 07:07:14;;;;;;;11.30;6.12;;;;;;;0.93;65.00;102264.27;1686485;84;27376;-74
2022/03/10 07:09:42;;;;;;;13.00;6.87;;;;;;;1.11;64.71;102265.09;1686519;84;25627;-73
2022/03/10 07:12:10;;;;;;;11.38;6.35;;;;;;;1.37;63.85;102270.23;1641111;86;25599;-73
2022/03/10 08:37:02;;;;;;;5.47;4.17;;;;;;;10.33;38.64;102282.70;1658674;85;25729;-73
2022/03/10 08:42:02;;;;;;;7.75;4.90;;;;;;;10.86;39.42;102276.83;1670545;85;25797;-75
2022/03/10 08:44:29;;;;;;;6.92;4.62;;;;;;;11.16;37.93;102275.36;1650844;85;27364;-74
2022/03/10 08:46:55;;;;;;;6.55;4.28;;;;;;;11.16;37.83;102292.42;1670159;85;25723;-72
2022/03/10 08:49:22;;;;;;;6.67;4.17;;;;;;;11.27;37.31;102289.23;1670223;85;25701;-72
2022/03/10 08:51:50;;;;;;;7.08;4.60;;;;;;;11.65;37.63;102293.16;1668976;84;25981;-72
2022/03/10 08:54:16;;;;;;;5.78;4.53;;;;;;;11.78;35.34;102289.39;1669911;85;25760;-72
2022/03/10 08:56:45;;;;;;;8.00;4.65;;;;;;;11.80;36.04;102280.16;1670093;85;27912;-74
2022/03/10 08:59:11;;;;;;;8.63;4.97;;;;;;;11.75;33.56;102293.18;1669829;85;25704;-72
2022/03/10 09:01:38;;;;;;;7.58;4.50;;;;;;;11.52;33.56;102286.33;1670140;85;25719;-73
2022/03/10 09:04:04;;;;;;;8.00;4.40;;;;;;;11.32;34.12;102289.78;1670075;85;25950;-74
2022/03/10 09:06:32;;;;;;;7.60;4.22;;;;;;;11.36;33.61;102288.98;1670062;85;25772;-73
2022/03/10 09:08:59;;;;;;;6.30;4.25;;;;;;;11.17;32.72;102297.32;1670113;85;27938;-73
2022/03/10 09:11:26;;;;;;;11.33;5.03;;;;;;;11.11;33.63;102294.30;1650170;85;25760;-73
2022/03/10 09:13:52;;;;;;;7.40;4.20;;;;;;;11.31;33.90;102282.20;1669933;85;25445;-72
2022/03/10 09:16:20;;;;;;;6.92;4.42;;;;;;;11.62;33.73;102279.58;1669924;85;25937;-73
2022/03/10 09:18:48;;;;;;;7.50;4.92;;;;;;;11.86;33.02;102283.16;1670161;85;25690;-73
2022/03/10 09:21:17;;;;;;;10.38;5.25;;;;;;;11.99;33.16;102277.80;1669850;85;27324;-73
2022/03/10 09:23:43;;;;;;;10.32;4.37;;;;;;;12.37;33.18;102277.78;1669892;84;25826;-72
2022/03/10 09:26:10;;;;;;;7.12;4.50;;;;;;;12.54;32.87;102276.13;1670082;85;25645;-72
2022/03/10 09:28:36;;;;;;;5.37;3.87;;;;;;;12.81;32.91;102272.29;1669750;85;25895;-73
2022/03/10 09:31:02;;;;;;;7.12;4.75;;;;;;;13.28;32.48;102271.05;1670059;85;25670;-73
2022/03/10 09:33:29;;;;;;;6.67;4.50;;;;;;;13.54;31.16;102269.58;1669992;85;27324;-73
2022/03/10 09:35:56;;;;;;;9.45;5.20;;;;;;;13.52;31.06;102265.78;1650056;85;25719;-73
2022/03/10 09:38:22;;;;;;;12.50;8.63;;;;;;;13.71;31.45;102271.92;1669848;84;25757;-72
2022/03/10 09:40:53;;;;;;;6.67;4.75;;;;;;;13.95;31.09;102270.67;1669984;85;26072;-72
2022/03/10 09:43:17;;;;;;;5.73;4.00;;;;;;;14.14;30.10;102272.14;1669597;85;25753;-71
2022/03/10 09:45:44;;;;;;;5.92;4.25;;;;;;;14.22;30.23;102270.70;1669976;85;27354;-71
2022/03/10 09:48:11;;;;;;;5.00;3.67;;;;;;;14.46;29.93;102274.31;1669836;85;25748;-71
2022/03/10 09:50:38;;;;;;;5.33;3.75;;;;;;;14.64;29.49;102279.62;1669845;85;25706;-73
2022/03/10 09:53:05;;;;;;;5.75;4.30;;;;;;;14.59;28.97;102287.02;1669836;85;26481;-73
2022/03/10 09:55:31;;;;;;;6.15;4.22;;;;;;;14.84;28.84;102280.50;1670004;85;25627;-74
2022/03/10 09:58:01;;;;;;;8.90;4.35;;;;;;;15.46;28.54;102286.83;1670065;85;27328;-71
2022/03/10 10:00:28;;;;;;;6.40;4.05;;;;;;;16.06;27.70;102272.59;1670015;85;25664;-70
2022/03/10 10:02:55;;;;;;;5.90;3.75;;;;;;;16.44;26.14;102279.30;1670104;85;25720;-72
2022/03/10 10:05:25;;;;;;;6.28;3.70;;;;;;;16.52;26.00;102278.38;1669808;85;25928;-72
2022/03/10 10:08:17;;;;;;;5.12;3.72;;;;;;;16.88;25.55;102279.91;1670274;85;25666;-71
2022/03/10 10:10:48;;;;;;;7.62;4.33;;;;;;;17.06;25.00;102293.23;1670359;85;27391;-72
2022/03/10 10:13:38;;;;;;;7.00;4.00;;;;;;;17.31;24.75;102289.12;1627821;87;25802;-72
2022/03/10 10:16:11;;;;;;;5.30;4.10;;;;;;;17.69;24.34;102300.34;1662721;86;25667;-72
2022/03/10 10:18:40;;;;;;;7.00;4.60;;;;;;;18.03;24.63;102292.20;1662700;84;25918;-72
2022/03/10 10:21:10;;;;;;;5.77;4.07;;;;;;;18.74;23.75;102293.66;1662848;86;25825;-72
2022/03/10 10:23:39;;;;;;;5.47;3.85;;;;;;;19.23;23.78;102295.06;1662724;86;27937;-72
2022/03/10 10:26:10;;;;;;;5.47;4.20;;;;;;;19.52;23.16;102296.41;1662881;86;25704;-72
2022/03/10 10:28:41;;;;;;;4.90;3.70;;;;;;;19.76;22.05;102291.84;1662210;86;25746;-71
2022/03/10 10:31:12;;;;;;;8.08;4.28;;;;;;;19.73;22.88;102301.52;1662576;85;26550;-72
2022/03/10 10:33:43;;;;;;;5.72;3.80;;;;;;;20.03;22.15;102309.12;1662432;84;25749;-72
2022/03/10 10:36:24;;;;;;;7.70;4.03;;;;;;;20.20;22.25;102295.35;1662555;86;27353;-73
2022/03/10 10:39:09;;;;;;;6.85;3.95;;;;;;;20.57;21.87;102298.50;1662516;86;25542;-72
2022/03/10 10:41:38;;;;;;;7.42;3.85;;;;;;;20.66;21.84;102293.79;1678903;84;25862;-72
2022/03/10 10:44:14;;;;;;;5.90;3.90;;;;;;;20.95;21.57;102288.66;1696178;84;25954;-72
2022/03/10 10:46:45;;;;;;;4.72;3.67;;;;;;;21.04;20.74;102294.91;1696135;84;25723;-72
2022/03/10 10:49:17;;;;;;;4.83;4.08;;;;;;;20.98;20.96;102299.80;1695629;83;27940;-72
2022/03/10 10:51:48;;;;;;;5.33;3.98;;;;;;;21.20;20.84;102291.83;1696082;84;25732;-73
2022/03/10 10:54:25;;;;;;;5.15;4.05;;;;;;;21.53;21.00;102294.48;1695990;84;25625;-72
2022/03/10 10:57:02;;;;;;;5.08;3.35;;;;;;;21.78;19.93;102295.41;1695942;84;26477;-72
2022/03/10 10:59:41;;;;;;;6.33;3.77;;;;;;;21.46;20.04;102283.97;1696251;84;25587;-72
2022/03/10 11:02:20;;;;;;;7.50;4.72;;;;;;;21.58;20.22;102286.81;1696189;84;27345;-72
2022/03/10 11:04:53;;;;;;;5.60;3.72;;;;;;;21.98;19.91;102278.05;1696096;84;25641;-74
2022/03/10 11:07:22;;;;;;;5.37;4.10;;;;;;;21.84;19.30;102280.27;1695586;84;25640;-74
2022/03/10 11:09:54;;;;;;;5.62;4.03;;;;;;;21.54;18.97;102278.17;1678023;84;25934;-72
2022/03/10 11:12:20;;;;;;;7.72;5.72;;;;;;;21.29;19.32;102283.52;1696056;84;25724;-73
2022/03/10 11:14:48;;;;;;;4.85;3.47;;;;;;;21.23;19.18;102277.96;1694108;84;27342;-73
2022/03/10 11:17:19;;;;;;;7.90;4.00;;;;;;;21.12;19.18;102280.30;1696058;84;25392;-74
2022/03/10 11:19:50;;;;;;;5.50;3.60;;;;;;;21.31;19.08;102276.30;1696063;84;25742;-73
2022/03/10 11:22:43;;;;;;;7.05;4.12;;;;;;;21.28;18.96;102277.77;1694531;84;25828;-72
2022/03/10 11:25:51;;;;;;;10.68;3.95;;;;;;;21.35;18.96;102278.61;1623199;87;25389;-73
2022/03/10 11:28:32;;;;;;;9.48;5.78;;;;;;;21.46;19.22;102281.21;1603600;88;27387;-72
2022/03/10 11:31:04;;;;;;;20.08;17.98;;;;;;;21.40;17.87;102279.79;1625797;88;25846;-73
2022/03/10 11:33:34;;;;;;;6.75;4.40;;;;;;;20.58;18.45;102280.05;1625650;88;25828;-73
2022/03/10 11:36:21;;;;;;;5.00;3.70;;;;;;;19.48;17.80;102279.77;1625834;88;25952;-73
2022/03/10 11:39:01;;;;;;;5.45;4.00;;;;;;;18.59;18.23;102272.14;1594274;89;25831;-74
2022/03/10 11:41:46;;;;;;;5.03;3.87;;;;;;;17.81;18.95;102270.52;1576230;89;27502;-72
2022/03/10 11:44:21;;;;;;;5.75;4.00;;;;;;;17.39;19.61;102273.94;1596767;89;25823;-72
2022/03/10 11:46:57;;;;;;;8.03;4.65;;;;;;;17.22;19.92;102269.67;1596923;89;26195;-73
2022/03/10 11:49:39;;;;;;;3.90;3.00;;;;;;;16.93;19.70;102272.17;1596508;89;25995;-74
2022/03/10 11:52:25;;;;;;;5.50;3.27;;;;;;;16.84;19.96;102271.20;1596753;89;25765;-72
2022/03/10 11:55:13;;;;;;;4.37;3.08;;;;;;;16.89;20.19;102271.14;1596733;89;27427;-72
2022/03/10 11:58:00;;;;;;;9.75;4.20;;;;;;;16.85;20.13;102269.57;1596895;89;25749;-73
2022/03/10 12:00:52;;;;;;;4.30;3.17;;;;;;;17.07;20.14;102262.59;1603439;88;25582;-73
2022/03/10 12:06:31;;;;;;;17.75;16.20;;;;;;;17.01;19.83;102271.46;1665579;85;25729;-74
2022/03/10 12:09:05;;;;;;;5.22;3.60;;;;;;;16.58;18.80;102267.06;1670090;85;27347;-73
2022/03/10 12:11:49;;;;;;;5.53;3.83;;;;;;;16.04;19.62;102266.63;1670048;85;25492;-73
2022/03/10 12:14:29;;;;;;;6.22;3.25;;;;;;;16.08;19.97;102268.20;1669469;85;25737;-72
2022/03/10 12:16:55;;;;;;;15.05;9.65;;;;;;;15.91;19.78;102264.65;1669161;85;26162;-74
2022/03/10 12:20:16;;;;;;;6.67;3.52;;;;;;;15.66;19.87;102264.45;1670698;85;25310;-76
2022/03/10 12:23:15;;;;;;;6.25;3.62;;;;;;;15.41;20.54;102266.45;1671860;85;26949;-77
2022/03/10 12:25:46;;;;;;;8.30;5.10;;;;;;;15.29;20.91;102266.07;1672073;85;25666;-76
2022/03/10 12:28:40;;;;;;;7.33;4.67;;;;;;;15.21;20.87;102272.97;1671086;85;25669;-75
2022/03/10 12:31:15;;;;;;;5.35;4.40;;;;;;;15.01;20.93;102275.95;1671710;85;25918;-76
2022/03/10 12:33:57;;;;;;;4.87;3.20;;;;;;;14.61;20.76;102267.94;1652326;85;25731;-76
2022/03/10 12:36:32;;;;;;;6.65;3.15;;;;;;;14.32;20.77;102266.01;1670151;85;27343;-74
2022/03/10 12:39:04;;;;;;;5.42;3.30;;;;;;;14.23;21.09;102266.91;1678009;84;25831;-75
2022/03/10 12:41:38;;;;;;;5.22;3.65;;;;;;;14.22;21.05;102260.66;1698552;84;25617;-74
2022/03/10 12:44:07;;;;;;;3.95;2.85;;;;;;;14.10;20.45;102258.30;1698413;84;26050;-74
2022/03/10 12:46:41;;;;;;;5.70;3.08;;;;;;;13.96;20.74;102262.75;1698702;84;32360;-75
2022/03/10 12:49:22;;;;;;;4.87;3.30;;;;;;;13.90;20.91;102267.98;1698239;84;27493;-75
2022/03/10 12:51:49;;;;;;;6.30;3.08;;;;;;;13.86;21.02;102264.19;1698249;84;25795;-74
2022/03/10 12:54:16;;;;;;;4.35;3.20;;;;;;;13.97;20.78;102263.83;1697764;84;26214;-75
2022/03/10 12:57:03;;;;;;;6.28;3.50;;;;;;;13.87;20.50;102266.63;1696123;84;26584;-73
2022/03/10 12:59:38;;;;;;;6.25;3.92;;;;;;;13.68;20.85;102266.48;1697848;84;25669;-75
2022/03/10 13:02:18;;;;;;;6.95;3.50;;;;;;;13.38;20.67;102258.79;1697508;84;27372;-75
2022/03/10 13:04:58;;;;;;;6.53;3.47;;;;;;;13.25;20.85;102266.96;1695412;84;25700;-75
2022/03/10 13:07:30;;;;;;;5.20;3.25;;;;;;;13.33;21.21;102253.91;1697706;84;25863;-74